createdAt,value
2022-07-30T00:04:10.465Z,10.20
2022-07-30T00:09:14.515Z,11.60
2022-07-30T00:14:18.379Z,10.20
2022-07-30T00:19:21.972Z,10.10
2022-07-30T00:24:27.976Z,12.40
2022-07-30T00:29:32.020Z,9.30
2022-07-30T00:34:37.005Z,11.70
2022-07-30T00:39:40.994Z,10.10
2022-07-30T00:44:45.542Z,8.90
2022-07-30T00:49:51.401Z,9.20
2022-07-30T00:54:55.019Z,8.40
2022-07-30T00:59:59.233Z,10.80
2022-07-30T01:05:03.019Z,8.80
2022-07-30T01:10:11.823Z,9.10
2022-07-30T01:15:17.527Z,9.90
2022-07-30T01:20:26.141Z,10.00
2022-07-30T01:25:46.604Z,7.30
2022-07-30T01:30:52.744Z,11.20
2022-07-30T01:35:57.457Z,13.10
2022-07-30T01:41:02.640Z,8.70
2022-07-30T01:46:08.787Z,10.70
2022-07-30T01:51:14.368Z,13.20
2022-07-30T01:56:24.772Z,9.00
2022-07-30T02:01:29.524Z,9.40
2022-07-30T02:06:37.966Z,8.40
2022-07-30T02:12:03.365Z,10.20
2022-07-30T02:17:18.522Z,10.70
2022-07-30T02:22:25.921Z,10.60
2022-07-30T02:27:33.938Z,10.10
2022-07-30T02:32:44.763Z,13.00
2022-07-30T02:37:55.026Z,9.90
2022-07-30T02:43:00.119Z,11.90
2022-07-30T02:48:08.931Z,10.80
2022-07-30T02:53:16.387Z,12.80
2022-07-30T02:58:23.727Z,13.90
2022-07-30T03:03:29.973Z,13.60
2022-07-30T03:08:34.458Z,14.70
2022-07-30T03:13:38.577Z,13.20
2022-07-30T03:18:45.434Z,14.50
2022-07-30T03:23:53.657Z,13.80
2022-07-30T03:28:59.304Z,13.60
2022-07-30T03:34:04.185Z,16.30
2022-07-30T03:39:11.586Z,15.00
2022-07-30T03:44:15.937Z,18.80
2022-07-30T03:49:20.567Z,16.70
2022-07-30T03:54:27.097Z,18.70
2022-07-30T03:59:31.693Z,18.70
2022-07-30T04:04:47.393Z,19.70
2022-07-30T04:09:51.320Z,16.40
2022-07-30T04:14:57.076Z,20.30
2022-07-30T04:20:08.330Z,20.90
2022-07-30T04:25:23.360Z,19.30
2022-07-30T04:30:29.132Z,18.30
2022-07-30T04:35:51.114Z,21.30
2022-07-30T04:40:57.758Z,20.70
2022-07-30T04:46:01.970Z,18.50
2022-07-30T04:51:13.538Z,17.40
2022-07-30T04:56:22.803Z,20.10
2022-07-30T05:01:40.377Z,20.50
2022-07-30T05:06:46.040Z,19.20
2022-07-30T05:11:53.375Z,22.00
2022-07-30T05:16:57.116Z,23.80
2022-07-30T05:22:04.743Z,23.90
2022-07-30T05:27:10.027Z,29.50
2022-07-30T05:32:13.743Z,25.10
2022-07-30T05:37:18.577Z,27.80
2022-07-30T05:42:22.303Z,24.40
2022-07-30T05:47:26.522Z,31.40
2022-07-30T05:52:30.097Z,26.70
2022-07-30T05:57:36.015Z,27.10
2022-07-30T06:02:40.514Z,32.00
2022-07-30T06:07:44.254Z,31.30
2022-07-30T06:12:47.861Z,26.00
2022-07-30T06:18:01.622Z,28.70
2022-07-30T06:23:06.837Z,23.90
2022-07-30T06:28:35.237Z,28.10
2022-07-30T06:33:34.778Z,20.60
2022-07-30T06:38:38.367Z,22.20
2022-07-30T06:43:43.064Z,24.00
2022-07-30T06:48:47.104Z,24.00
2022-07-30T06:53:50.799Z,19.70
2022-07-30T06:58:54.510Z,16.70
2022-07-30T07:03:58.294Z,15.60
2022-07-30T07:09:06.082Z,16.30
2022-07-30T07:14:12.198Z,15.30
2022-07-30T07:19:15.984Z,17.00
2022-07-30T07:24:39.624Z,19.30
2022-07-30T07:30:01.231Z,21.40
2022-07-30T07:35:09.417Z,26.30
2022-07-30T07:40:14.115Z,25.30
2022-07-30T07:45:20.871Z,19.40
2022-07-30T07:50:24.406Z,17.90
2022-07-30T07:55:28.614Z,17.60
2022-07-30T08:00:35.747Z,20.10
2022-07-30T08:05:56.899Z,17.50
2022-07-30T08:11:03.600Z,15.00
2022-07-30T08:16:10.875Z,19.60
2022-07-30T08:21:16.414Z,15.00
2022-07-30T08:26:19.963Z,17.30
2022-07-30T08:31:24.212Z,13.10
2022-07-30T08:36:28.000Z,16.80
2022-07-30T08:41:31.636Z,15.20
2022-07-30T08:46:36.802Z,14.30
2022-07-30T08:51:40.370Z,14.30
2022-07-30T08:56:45.106Z,13.80
2022-07-30T09:01:49.533Z,13.10
2022-07-30T09:06:57.076Z,12.70
2022-07-30T09:12:01.124Z,11.20
2022-07-30T09:17:06.934Z,13.20
2022-07-30T09:22:11.778Z,12.10
2022-07-30T09:27:16.373Z,10.50
2022-07-30T09:32:19.819Z,11.50
2022-07-30T09:37:23.544Z,12.40
2022-07-30T09:42:31.766Z,14.90
2022-07-30T09:47:37.491Z,10.20
2022-07-30T09:52:44.266Z,11.20
2022-07-30T09:57:57.717Z,11.50
2022-07-30T10:03:22.005Z,10.00
2022-07-30T10:08:46.227Z,9.80
2022-07-30T10:13:53.609Z,10.70
2022-07-30T10:18:59.482Z,15.90
2022-07-30T10:24:05.080Z,15.60
2022-07-30T10:29:12.945Z,14.90
2022-07-30T10:34:23.589Z,12.60
2022-07-30T10:39:34.744Z,13.60
2022-07-30T10:45:17.162Z,12.10
2022-07-30T10:50:26.096Z,15.30
2022-07-30T10:55:38.794Z,20.00
2022-07-30T11:01:00.149Z,15.80
2022-07-30T11:06:28.073Z,16.10
2022-07-30T11:12:05.549Z,16.20
2022-07-30T11:17:09.419Z,15.30
2022-07-30T11:22:31.189Z,15.50
2022-07-30T11:27:41.516Z,16.00
2022-07-30T11:32:48.716Z,12.70
2022-07-30T11:38:07.617Z,13.20
2022-07-30T11:43:20.511Z,15.10
2022-07-30T11:48:41.708Z,13.80
2022-07-30T11:53:59.909Z,17.60
2022-07-30T11:59:04.900Z,15.70
2022-07-30T12:04:08.769Z,12.80
2022-07-30T12:09:13.948Z,13.10
2022-07-30T12:14:17.708Z,14.00
2022-07-30T12:19:21.513Z,12.30
2022-07-30T12:24:28.432Z,11.90
2022-07-30T12:29:33.268Z,12.00
2022-07-30T12:34:37.080Z,13.10
2022-07-30T12:39:40.720Z,11.90
2022-07-30T12:44:45.520Z,12.30
2022-07-30T12:49:50.256Z,11.80
2022-07-30T12:55:00.982Z,12.40
2022-07-30T13:00:08.388Z,11.50
2022-07-30T13:05:12.190Z,12.90
2022-07-30T13:10:18.940Z,13.60
2022-07-30T13:15:23.190Z,14.30
2022-07-30T13:20:27.930Z,14.30
2022-07-30T13:25:40.376Z,13.50
2022-07-30T13:30:45.089Z,11.80
2022-07-30T13:35:52.313Z,11.10
2022-07-30T13:41:02.033Z,11.20
2022-07-30T13:46:06.429Z,11.50
2022-07-30T13:51:10.783Z,10.60
2022-07-30T13:56:14.764Z,8.40
2022-07-30T14:01:21.994Z,8.40
2022-07-30T14:06:25.547Z,8.10
2022-07-30T14:11:29.099Z,10.60
2022-07-30T14:16:45.250Z,8.20
2022-07-30T14:21:52.482Z,8.80
2022-07-30T14:26:58.340Z,8.70
2022-07-30T14:32:02.546Z,9.60
2022-07-30T14:37:06.357Z,9.60
2022-07-30T14:42:14.450Z,10.60
2022-07-30T14:47:18.771Z,13.00
2022-07-30T14:52:23.214Z,13.10
2022-07-30T14:57:27.930Z,11.40
2022-07-30T15:02:32.515Z,12.00
2022-07-30T15:07:36.862Z,11.50
2022-07-30T15:12:40.600Z,12.40
2022-07-30T15:17:45.343Z,11.90
2022-07-30T15:22:51.652Z,10.80
2022-07-30T15:32:58.284Z,15.40
2022-07-30T15:38:01.903Z,15.00
2022-07-30T15:43:08.564Z,14.90
2022-07-30T15:48:14.094Z,17.40
2022-07-30T15:53:30.848Z,15.90
2022-07-30T15:58:35.180Z,13.00
2022-07-30T16:03:38.688Z,18.40
2022-07-30T16:08:43.529Z,13.60
2022-07-30T16:13:47.883Z,14.50
2022-07-30T16:18:51.593Z,14.00
2022-07-30T16:23:56.234Z,15.70
2022-07-30T16:29:00.177Z,18.00
2022-07-30T16:34:03.892Z,14.90
2022-07-30T16:39:07.680Z,14.50
2022-07-30T16:44:11.350Z,15.50
2022-07-30T16:49:15.296Z,12.20
2022-07-30T16:54:19.043Z,13.80
2022-07-30T16:59:23.069Z,13.60
2022-07-30T17:04:27.102Z,17.10
2022-07-30T17:09:36.327Z,17.20
2022-07-30T17:14:41.546Z,15.30
2022-07-30T17:19:45.378Z,16.50
2022-07-30T17:24:48.971Z,15.50
2022-07-30T17:29:52.609Z,14.70
2022-07-30T17:34:56.425Z,16.70
2022-07-30T17:40:27.577Z,16.70
2022-07-30T17:45:23.795Z,15.00
2022-07-30T17:50:29.275Z,13.50
2022-07-30T17:55:35.261Z,12.40
2022-07-30T18:00:39.457Z,16.30
2022-07-30T18:05:44.402Z,18.70
2022-07-30T18:10:48.355Z,14.00
2022-07-30T18:15:53.609Z,15.90
2022-07-30T18:20:57.531Z,15.80
2022-07-30T18:26:01.504Z,15.50
2022-07-30T18:31:06.821Z,15.90
2022-07-30T18:36:11.163Z,20.50
2022-07-30T18:41:15.365Z,16.50
2022-07-30T18:46:20.520Z,11.50
2022-07-30T18:51:24.977Z,14.40
2022-07-30T18:56:28.720Z,16.50
2022-07-30T19:01:32.706Z,12.10
2022-07-30T19:06:37.667Z,10.80
2022-07-30T19:11:43.217Z,11.80
2022-07-30T19:16:47.428Z,9.60
2022-07-30T19:21:51.520Z,13.20
2022-07-30T19:26:56.044Z,15.20
2022-07-30T19:32:00.220Z,12.00
2022-07-30T19:37:04.790Z,11.70
2022-07-30T19:42:09.374Z,12.20
2022-07-30T19:47:15.960Z,16.80
2022-07-30T19:52:25.242Z,16.20
2022-07-30T19:57:45.684Z,17.40
2022-07-30T20:02:54.214Z,18.40
2022-07-30T20:07:59.877Z,18.80
2022-07-30T20:13:06.440Z,20.50
2022-07-30T20:18:11.356Z,17.50
2022-07-30T20:23:15.876Z,18.00
2022-07-30T20:28:21.136Z,19.40
2022-07-30T20:33:35.859Z,19.60
2022-07-30T20:38:44.247Z,20.10
2022-07-30T20:48:58.598Z,16.90
2022-07-30T20:54:02.718Z,15.10
2022-07-30T20:59:06.899Z,11.00
2022-07-30T21:04:11.821Z,12.90
2022-07-30T21:09:29.416Z,13.60
2022-07-30T21:14:53.915Z,12.90
2022-07-30T21:19:57.431Z,11.90
2022-07-30T21:25:01.094Z,13.20
2022-07-30T21:30:10.074Z,14.00
2022-07-30T21:35:13.948Z,14.70
2022-07-30T21:40:24.558Z,11.50
2022-07-30T21:45:38.071Z,13.50
2022-07-30T21:50:45.480Z,14.60
2022-07-30T21:55:52.379Z,12.40
2022-07-30T22:01:16.405Z,17.30
2022-07-30T22:06:21.882Z,13.50
2022-07-30T22:11:42.790Z,12.70
2022-07-30T22:16:50.210Z,13.90
2022-07-30T22:21:54.874Z,14.20
2022-07-30T22:27:00.010Z,12.70
2022-07-30T22:32:08.185Z,15.70
2022-07-30T22:37:12.849Z,14.50
2022-07-30T22:42:17.862Z,15.70
2022-07-30T22:47:51.332Z,13.00
2022-07-30T22:52:53.227Z,17.40
2022-07-30T22:58:03.316Z,17.20
2022-07-30T23:03:08.020Z,18.90
2022-07-30T23:08:13.953Z,17.40
2022-07-30T23:13:17.761Z,25.90
2022-07-30T23:18:22.045Z,18.30
2022-07-30T23:23:25.688Z,32.80
2022-07-30T23:28:31.968Z,34.00
2022-07-30T23:33:35.782Z,40.20
2022-07-30T23:38:39.400Z,27.70
2022-07-30T23:43:43.396Z,31.80
2022-07-30T23:48:47.206Z,31.90
2022-07-30T23:53:51.200Z,30.00
2022-07-30T23:58:57.153Z,22.40
